sensor_id;sensor_type;location;lat;lon;timestamp;P1;durP1;ratioP1;P2;durP2;ratioP2
7545;SDS011;3814;51.454;12.616;2023-03-01T00:01:03;20.15;;;6.70;;
7545;SDS011;3814;51.454;12.616;2023-03-01T00:03:32;20.10;;;6.65;;
7545;SDS011;3814;51.454;12.616;2023-03-01T00:05:58;21.08;;;8.13;;
7545;SDS011;3814;51.454;12.616;2023-03-01T00:08:23;19.77;;;7.13;;
7545;SDS011;3814;51.454;12.616;2023-03-01T00:10:49;17.20;;;6.05;;
7545;SDS011;3814;51.454;12.616;2023-03-01T00:13:14;19.55;;;6.28;;
7545;SDS011;3814;51.454;12.616;2023-03-01T00:15:40;16.25;;;6.50;;
7545;SDS011;3814;51.454;12.616;2023-03-01T00:18:06;23.67;;;8.35;;
7545;SDS011;3814;51.454;12.616;2023-03-01T00:20:32;18.73;;;7.38;;
7545;SDS011;3814;51.454;12.616;2023-03-01T00:22:57;21.92;;;7.93;;
7545;SDS011;3814;51.454;12.616;2023-03-01T00:25:22;20.45;;;7.53;;
7545;SDS011;3814;51.454;12.616;2023-03-01T00:27:48;18.00;;;7.18;;
7545;SDS011;3814;51.454;12.616;2023-03-01T00:30:14;19.60;;;7.25;;
7545;SDS011;3814;51.454;12.616;2023-03-01T00:32:39;16.70;;;6.70;;
7545;SDS011;3814;51.454;12.616;2023-03-01T00:35:05;17.88;;;7.00;;
7545;SDS011;3814;51.454;12.616;2023-03-01T00:37:30;18.70;;;6.95;;
7545;SDS011;3814;51.454;12.616;2023-03-01T00:39:56;18.35;;;6.28;;
7545;SDS011;3814;51.454;12.616;2023-03-01T00:42:21;16.73;;;6.60;;
7545;SDS011;3814;51.454;12.616;2023-03-01T00:44:47;16.00;;;6.55;;
7545;SDS011;3814;51.454;12.616;2023-03-01T00:47:12;17.60;;;6.20;;
7545;SDS011;3814;51.454;12.616;2023-03-01T00:49:38;18.30;;;6.97;;
7545;SDS011;3814;51.454;12.616;2023-03-01T00:52:04;16.52;;;6.90;;
7545;SDS011;3814;51.454;12.616;2023-03-01T00:54:29;18.15;;;7.03;;
7545;SDS011;3814;51.454;12.616;2023-03-01T00:56:54;17.27;;;6.68;;
7545;SDS011;3814;51.454;12.616;2023-03-01T00:59:19;19.77;;;7.75;;
7545;SDS011;3814;51.454;12.616;2023-03-01T01:01:45;21.38;;;7.25;;
7545;SDS011;3814;51.454;12.616;2023-03-01T01:04:11;15.00;;;6.60;;
7545;SDS011;3814;51.454;12.616;2023-03-01T01:06:39;19.23;;;6.32;;
7545;SDS011;3814;51.454;12.616;2023-03-01T01:09:07;16.40;;;6.47;;
7545;SDS011;3814;51.454;12.616;2023-03-01T01:11:33;18.33;;;7.10;;
7545;SDS011;3814;51.454;12.616;2023-03-01T01:14:00;16.85;;;7.07;;
7545;SDS011;3814;51.454;12.616;2023-03-01T01:16:26;16.48;;;6.57;;
7545;SDS011;3814;51.454;12.616;2023-03-01T01:18:52;16.25;;;6.15;;
7545;SDS011;3814;51.454;12.616;2023-03-01T01:21:19;16.35;;;6.03;;
7545;SDS011;3814;51.454;12.616;2023-03-01T01:23:46;17.40;;;6.40;;
7545;SDS011;3814;51.454;12.616;2023-03-01T01:26:13;16.83;;;5.55;;
7545;SDS011;3814;51.454;12.616;2023-03-01T01:28:43;14.82;;;5.65;;
7545;SDS011;3814;51.454;12.616;2023-03-01T01:31:09;16.48;;;6.00;;
7545;SDS011;3814;51.454;12.616;2023-03-01T01:33:34;20.50;;;6.07;;
7545;SDS011;3814;51.454;12.616;2023-03-01T01:36:00;15.70;;;5.95;;
7545;SDS011;3814;51.454;12.616;2023-03-01T01:38:25;22.45;;;6.53;;
7545;SDS011;3814;51.454;12.616;2023-03-01T01:40:52;18.67;;;6.50;;
7545;SDS011;3814;51.454;12.616;2023-03-01T01:43:19;18.00;;;6.38;;
7545;SDS011;3814;51.454;12.616;2023-03-01T01:45:46;15.85;;;5.93;;
7545;SDS011;3814;51.454;12.616;2023-03-01T01:48:13;15.80;;;7.18;;
7545;SDS011;3814;51.454;12.616;2023-03-01T01:50:41;16.65;;;5.70;;
7545;SDS011;3814;51.454;12.616;2023-03-01T01:53:08;18.13;;;7.07;;
7545;SDS011;3814;51.454;12.616;2023-03-01T01:55:34;15.45;;;6.35;;
7545;SDS011;3814;51.454;12.616;2023-03-01T01:58:02;16.95;;;5.90;;
7545;SDS011;3814;51.454;12.616;2023-03-01T02:00:30;22.75;;;7.65;;
7545;SDS011;3814;51.454;12.616;2023-03-01T02:02:59;17.90;;;6.72;;
7545;SDS011;3814;51.454;12.616;2023-03-01T02:05:46;15.90;;;6.90;;
7545;SDS011;3814;51.454;12.616;2023-03-01T02:08:15;21.33;;;7.90;;
7545;SDS011;3814;51.454;12.616;2023-03-01T02:10:42;17.52;;;6.95;;
7545;SDS011;3814;51.454;12.616;2023-03-01T02:13:07;18.55;;;6.43;;
7545;SDS011;3814;51.454;12.616;2023-03-01T02:15:34;20.67;;;7.38;;
7545;SDS011;3814;51.454;12.616;2023-03-01T02:18:00;20.67;;;7.63;;
7545;SDS011;3814;51.454;12.616;2023-03-01T02:20:39;18.52;;;7.63;;
7545;SDS011;3814;51.454;12.616;2023-03-01T02:23:10;16.63;;;7.05;;
7545;SDS011;3814;51.454;12.616;2023-03-01T02:25:37;20.45;;;7.22;;
7545;SDS011;3814;51.454;12.616;2023-03-01T02:30:44;18.38;;;7.03;;
7545;SDS011;3814;51.454;12.616;2023-03-01T02:33:30;16.38;;;5.93;;
7545;SDS011;3814;51.454;12.616;2023-03-01T02:35:57;20.42;;;6.57;;
7545;SDS011;3814;51.454;12.616;2023-03-01T02:38:24;17.17;;;6.68;;
7545;SDS011;3814;51.454;12.616;2023-03-01T02:40:50;16.10;;;6.10;;
7545;SDS011;3814;51.454;12.616;2023-03-01T02:43:16;17.83;;;7.28;;
7545;SDS011;3814;51.454;12.616;2023-03-01T02:45:50;16.38;;;6.63;;
7545;SDS011;3814;51.454;12.616;2023-03-01T02:48:16;18.98;;;6.95;;
7545;SDS011;3814;51.454;12.616;2023-03-01T02:51:05;17.38;;;6.38;;
7545;SDS011;3814;51.454;12.616;2023-03-01T02:53:53;19.67;;;6.78;;
7545;SDS011;3814;51.454;12.616;2023-03-01T02:56:21;18.42;;;6.75;;
7545;SDS011;3814;51.454;12.616;2023-03-01T02:58:47;16.77;;;6.15;;
7545;SDS011;3814;51.454;12.616;2023-03-01T03:01:16;18.70;;;7.05;;
7545;SDS011;3814;51.454;12.616;2023-03-01T03:03:42;18.25;;;7.43;;
7545;SDS011;3814;51.454;12.616;2023-03-01T03:06:08;18.35;;;7.15;;
7545;SDS011;3814;51.454;12.616;2023-03-01T03:08:33;17.90;;;6.72;;
7545;SDS011;3814;51.454;12.616;2023-03-01T03:10:58;20.40;;;6.97;;
7545;SDS011;3814;51.454;12.616;2023-03-01T03:13:24;17.40;;;6.25;;
7545;SDS011;3814;51.454;12.616;2023-03-01T03:15:53;16.88;;;7.28;;
7545;SDS011;3814;51.454;12.616;2023-03-01T03:18:19;20.20;;;8.10;;
7545;SDS011;3814;51.454;12.616;2023-03-01T03:20:45;16.48;;;7.63;;
7545;SDS011;3814;51.454;12.616;2023-03-01T03:23:11;17.58;;;6.88;;
7545;SDS011;3814;51.454;12.616;2023-03-01T03:25:37;18.67;;;7.28;;
7545;SDS011;3814;51.454;12.616;2023-03-01T03:28:03;18.65;;;6.93;;
7545;SDS011;3814;51.454;12.616;2023-03-01T03:30:35;19.42;;;7.32;;
7545;SDS011;3814;51.454;12.616;2023-03-01T03:33:01;16.17;;;6.47;;
7545;SDS011;3814;51.454;12.616;2023-03-01T03:35:27;19.55;;;7.63;;
7545;SDS011;3814;51.454;12.616;2023-03-01T03:37:58;16.38;;;6.60;;
7545;SDS011;3814;51.454;12.616;2023-03-01T03:40:28;19.50;;;7.70;;
7545;SDS011;3814;51.454;12.616;2023-03-01T03:42:55;17.58;;;6.93;;
7545;SDS011;3814;51.454;12.616;2023-03-01T03:45:21;17.38;;;6.65;;
7545;SDS011;3814;51.454;12.616;2023-03-01T03:47:46;18.30;;;6.68;;
7545;SDS011;3814;51.454;12.616;2023-03-01T03:50:13;17.92;;;6.85;;
7545;SDS011;3814;51.454;12.616;2023-03-01T03:52:39;15.68;;;6.28;;
7545;SDS011;3814;51.454;12.616;2023-03-01T03:55:05;17.33;;;6.38;;
7545;SDS011;3814;51.454;12.616;2023-03-01T03:57:35;18.38;;;6.95;;
7545;SDS011;3814;51.454;12.616;2023-03-01T04:00:04;17.40;;;7.20;;
7545;SDS011;3814;51.454;12.616;2023-03-01T04:02:30;21.27;;;7.80;;
7545;SDS011;3814;51.454;12.616;2023-03-01T04:04:56;18.08;;;6.57;;
7545;SDS011;3814;51.454;12.616;2023-03-01T04:07:21;21.25;;;8.13;;
7545;SDS011;3814;51.454;12.616;2023-03-01T04:09:46;18.00;;;7.07;;
7545;SDS011;3814;51.454;12.616;2023-03-01T04:12:12;22.25;;;7.78;;
7545;SDS011;3814;51.454;12.616;2023-03-01T04:14:37;22.73;;;8.02;;
7545;SDS011;3814;51.454;12.616;2023-03-01T04:17:02;18.15;;;7.50;;
7545;SDS011;3814;51.454;12.616;2023-03-01T04:19:30;18.75;;;6.97;;
7545;SDS011;3814;51.454;12.616;2023-03-01T04:22:01;19.90;;;7.50;;
7545;SDS011;3814;51.454;12.616;2023-03-01T04:24:32;17.67;;;7.20;;
7545;SDS011;3814;51.454;12.616;2023-03-01T04:26:57;18.02;;;6.10;;
7545;SDS011;3814;51.454;12.616;2023-03-01T04:29:23;22.77;;;7.60;;
7545;SDS011;3814;51.454;12.616;2023-03-01T04:31:48;17.02;;;6.30;;
7545;SDS011;3814;51.454;12.616;2023-03-01T04:34:14;21.48;;;6.40;;
7545;SDS011;3814;51.454;12.616;2023-03-01T04:36:39;17.80;;;6.72;;
7545;SDS011;3814;51.454;12.616;2023-03-01T04:39:04;16.98;;;6.30;;
7545;SDS011;3814;51.454;12.616;2023-03-01T04:41:36;19.30;;;6.65;;
7545;SDS011;3814;51.454;12.616;2023-03-01T04:44:02;16.45;;;6.13;;
7545;SDS011;3814;51.454;12.616;2023-03-01T04:46:29;20.58;;;7.13;;
7545;SDS011;3814;51.454;12.616;2023-03-01T04:48:54;13.90;;;5.55;;
7545;SDS011;3814;51.454;12.616;2023-03-01T04:51:19;19.33;;;6.20;;
7545;SDS011;3814;51.454;12.616;2023-03-01T04:53:45;14.63;;;5.40;;
7545;SDS011;3814;51.454;12.616;2023-03-01T04:56:10;19.48;;;6.55;;
7545;SDS011;3814;51.454;12.616;2023-03-01T04:58:36;16.23;;;6.38;;
7545;SDS011;3814;51.454;12.616;2023-03-01T05:01:01;19.58;;;6.50;;
7545;SDS011;3814;51.454;12.616;2023-03-01T05:03:40;20.48;;;7.20;;
7545;SDS011;3814;51.454;12.616;2023-03-01T05:06:08;18.48;;;7.00;;
7545;SDS011;3814;51.454;12.616;2023-03-01T05:08:34;22.98;;;8.00;;
7545;SDS011;3814;51.454;12.616;2023-03-01T05:11:01;23.17;;;7.97;;
7545;SDS011;3814;51.454;12.616;2023-03-01T05:13:27;21.10;;;7.13;;
7545;SDS011;3814;51.454;12.616;2023-03-01T05:15:55;20.02;;;7.45;;
7545;SDS011;3814;51.454;12.616;2023-03-01T05:18:22;21.33;;;8.02;;
7545;SDS011;3814;51.454;12.616;2023-03-01T05:20:50;18.35;;;7.32;;
7545;SDS011;3814;51.454;12.616;2023-03-01T05:23:16;21.20;;;7.40;;
7545;SDS011;3814;51.454;12.616;2023-03-01T05:25:43;18.98;;;7.10;;
7545;SDS011;3814;51.454;12.616;2023-03-01T05:28:10;21.27;;;7.80;;
7545;SDS011;3814;51.454;12.616;2023-03-01T05:30:36;22.75;;;7.07;;
7545;SDS011;3814;51.454;12.616;2023-03-01T05:33:04;20.65;;;6.43;;
7545;SDS011;3814;51.454;12.616;2023-03-01T05:35:29;18.25;;;7.15;;
7545;SDS011;3814;51.454;12.616;2023-03-01T05:37:57;20.63;;;7.10;;
7545;SDS011;3814;51.454;12.616;2023-03-01T05:40:23;21.85;;;7.28;;
7545;SDS011;3814;51.454;12.616;2023-03-01T05:42:49;19.83;;;7.53;;
7545;SDS011;3814;51.454;12.616;2023-03-01T05:45:19;17.90;;;6.97;;
7545;SDS011;3814;51.454;12.616;2023-03-01T05:47:45;24.50;;;8.20;;
7545;SDS011;3814;51.454;12.616;2023-03-01T05:52:45;20.38;;;7.70;;
7545;SDS011;3814;51.454;12.616;2023-03-01T05:55:12;20.85;;;7.03;;
7545;SDS011;3814;51.454;12.616;2023-03-01T05:57:37;21.60;;;6.95;;
7545;SDS011;3814;51.454;12.616;2023-03-01T06:00:03;18.80;;;6.93;;
7545;SDS011;3814;51.454;12.616;2023-03-01T06:02:28;21.77;;;8.10;;
7545;SDS011;3814;51.454;12.616;2023-03-01T06:04:54;20.10;;;8.13;;
7545;SDS011;3814;51.454;12.616;2023-03-01T06:07:19;21.88;;;7.63;;
7545;SDS011;3814;51.454;12.616;2023-03-01T06:09:45;19.42;;;6.75;;
7545;SDS011;3814;51.454;12.616;2023-03-01T06:12:10;24.98;;;8.65;;
7545;SDS011;3814;51.454;12.616;2023-03-01T06:14:35;20.13;;;8.13;;
7545;SDS011;3814;51.454;12.616;2023-03-01T06:17:00;18.05;;;7.28;;
7545;SDS011;3814;51.454;12.616;2023-03-01T06:19:26;19.17;;;6.75;;
7545;SDS011;3814;51.454;12.616;2023-03-01T06:21:51;21.63;;;7.10;;
7545;SDS011;3814;51.454;12.616;2023-03-01T06:24:16;20.10;;;7.72;;
7545;SDS011;3814;51.454;12.616;2023-03-01T06:26:42;28.80;;;10.40;;
7545;SDS011;3814;51.454;12.616;2023-03-01T06:29:07;27.15;;;10.50;;
7545;SDS011;3814;51.454;12.616;2023-03-01T06:31:33;28.30;;;10.52;;
7545;SDS011;3814;51.454;12.616;2023-03-01T06:33:58;30.85;;;11.30;;
7545;SDS011;3814;51.454;12.616;2023-03-01T06:36:24;31.08;;;10.93;;
7545;SDS011;3814;51.454;12.616;2023-03-01T06:38:49;26.38;;;9.63;;
7545;SDS011;3814;51.454;12.616;2023-03-01T06:41:14;23.38;;;8.38;;
7545;SDS011;3814;51.454;12.616;2023-03-01T06:43:40;25.15;;;8.95;;
7545;SDS011;3814;51.454;12.616;2023-03-01T06:46:05;24.50;;;7.88;;
7545;SDS011;3814;51.454;12.616;2023-03-01T06:48:31;19.13;;;7.20;;
7545;SDS011;3814;51.454;12.616;2023-03-01T06:51:00;22.02;;;8.27;;
7545;SDS011;3814;51.454;12.616;2023-03-01T06:53:29;20.50;;;7.88;;
7545;SDS011;3814;51.454;12.616;2023-03-01T06:55:55;25.75;;;9.18;;
7545;SDS011;3814;51.454;12.616;2023-03-01T06:58:20;24.33;;;9.18;;
7545;SDS011;3814;51.454;12.616;2023-03-01T07:00:46;28.45;;;10.43;;
7545;SDS011;3814;51.454;12.616;2023-03-01T07:03:11;26.40;;;9.75;;
7545;SDS011;3814;51.454;12.616;2023-03-01T07:05:36;27.83;;;8.48;;
7545;SDS011;3814;51.454;12.616;2023-03-01T07:08:02;20.00;;;8.25;;
7545;SDS011;3814;51.454;12.616;2023-03-01T07:10:29;20.35;;;7.53;;
7545;SDS011;3814;51.454;12.616;2023-03-01T07:12:55;23.55;;;8.68;;
7545;SDS011;3814;51.454;12.616;2023-03-01T07:15:21;20.10;;;7.97;;
7545;SDS011;3814;51.454;12.616;2023-03-01T07:17:46;20.30;;;7.60;;
7545;SDS011;3814;51.454;12.616;2023-03-01T07:20:13;23.85;;;8.52;;
7545;SDS011;3814;51.454;12.616;2023-03-01T07:22:40;21.45;;;7.68;;
7545;SDS011;3814;51.454;12.616;2023-03-01T07:25:06;20.73;;;8.38;;
7545;SDS011;3814;51.454;12.616;2023-03-01T07:27:32;22.63;;;8.63;;
7545;SDS011;3814;51.454;12.616;2023-03-01T07:29:57;18.40;;;7.75;;
7545;SDS011;3814;51.454;12.616;2023-03-01T07:32:22;20.55;;;8.43;;
7545;SDS011;3814;51.454;12.616;2023-03-01T07:34:47;23.67;;;8.98;;
7545;SDS011;3814;51.454;12.616;2023-03-01T07:37:13;23.95;;;9.02;;
7545;SDS011;3814;51.454;12.616;2023-03-01T07:39:38;25.83;;;9.65;;
7545;SDS011;3814;51.454;12.616;2023-03-01T07:42:03;24.77;;;8.55;;
7545;SDS011;3814;51.454;12.616;2023-03-01T07:44:29;22.98;;;9.00;;
7545;SDS011;3814;51.454;12.616;2023-03-01T07:46:54;29.70;;;10.50;;
7545;SDS011;3814;51.454;12.616;2023-03-01T07:49:21;33.42;;;12.40;;
7545;SDS011;3814;51.454;12.616;2023-03-01T07:51:47;31.00;;;11.75;;
7545;SDS011;3814;51.454;12.616;2023-03-01T07:54:12;28.27;;;10.75;;
7545;SDS011;3814;51.454;12.616;2023-03-01T07:56:37;24.63;;;9.50;;
7545;SDS011;3814;51.454;12.616;2023-03-01T07:59:02;21.45;;;8.40;;
7545;SDS011;3814;51.454;12.616;2023-03-01T08:01:28;18.38;;;8.50;;
7545;SDS011;3814;51.454;12.616;2023-03-01T08:03:53;19.60;;;8.23;;
7545;SDS011;3814;51.454;12.616;2023-03-01T08:06:18;22.00;;;9.55;;
7545;SDS011;3814;51.454;12.616;2023-03-01T08:08:44;20.45;;;9.70;;
7545;SDS011;3814;51.454;12.616;2023-03-01T08:11:10;21.92;;;9.05;;
7545;SDS011;3814;51.454;12.616;2023-03-01T08:13:36;21.67;;;9.13;;
7545;SDS011;3814;51.454;12.616;2023-03-01T08:16:02;21.58;;;9.20;;
7545;SDS011;3814;51.454;12.616;2023-03-01T08:18:32;18.92;;;8.98;;
7545;SDS011;3814;51.454;12.616;2023-03-01T08:21:01;19.67;;;9.02;;
7545;SDS011;3814;51.454;12.616;2023-03-01T08:23:28;18.00;;;7.95;;
7545;SDS011;3814;51.454;12.616;2023-03-01T08:25:54;21.35;;;9.60;;
7545;SDS011;3814;51.454;12.616;2023-03-01T08:28:20;21.25;;;9.38;;
7545;SDS011;3814;51.454;12.616;2023-03-01T08:30:45;23.88;;;10.13;;
7545;SDS011;3814;51.454;12.616;2023-03-01T08:33:11;20.55;;;9.30;;
7545;SDS011;3814;51.454;12.616;2023-03-01T08:35:36;19.02;;;9.80;;
7545;SDS011;3814;51.454;12.616;2023-03-01T08:38:01;22.15;;;10.48;;
7545;SDS011;3814;51.454;12.616;2023-03-01T08:40:26;17.83;;;9.13;;
7545;SDS011;3814;51.454;12.616;2023-03-01T08:42:52;22.05;;;10.13;;
7545;SDS011;3814;51.454;12.616;2023-03-01T08:45:17;23.52;;;10.70;;
7545;SDS011;3814;51.454;12.616;2023-03-01T08:47:43;20.08;;;9.90;;
7545;SDS011;3814;51.454;12.616;2023-03-01T08:50:10;20.15;;;9.93;;
7545;SDS011;3814;51.454;12.616;2023-03-01T08:52:35;21.48;;;9.63;;
7545;SDS011;3814;51.454;12.616;2023-03-01T08:55:00;20.90;;;9.77;;
7545;SDS011;3814;51.454;12.616;2023-03-01T08:57:26;21.92;;;9.95;;
7545;SDS011;3814;51.454;12.616;2023-03-01T08:59:51;19.52;;;9.65;;
7545;SDS011;3814;51.454;12.616;2023-03-01T09:02:17;25.60;;;11.00;;
7545;SDS011;3814;51.454;12.616;2023-03-01T09:04:43;25.17;;;10.85;;
7545;SDS011;3814;51.454;12.616;2023-03-01T09:07:09;24.98;;;11.25;;
7545;SDS011;3814;51.454;12.616;2023-03-01T09:09:35;29.25;;;10.85;;
7545;SDS011;3814;51.454;12.616;2023-03-01T09:12:01;26.88;;;12.07;;
7545;SDS011;3814;51.454;12.616;2023-03-01T09:14:26;25.52;;;10.90;;
7545;SDS011;3814;51.454;12.616;2023-03-01T09:16:52;23.50;;;10.63;;
7545;SDS011;3814;51.454;12.616;2023-03-01T09:19:17;26.48;;;11.05;;
7545;SDS011;3814;51.454;12.616;2023-03-01T09:21:42;27.80;;;12.30;;
7545;SDS011;3814;51.454;12.616;2023-03-01T09:24:17;30.30;;;12.02;;
7545;SDS011;3814;51.454;12.616;2023-03-01T09:26:43;29.88;;;12.57;;
7545;SDS011;3814;51.454;12.616;2023-03-01T09:29:11;30.50;;;13.38;;
7545;SDS011;3814;51.454;12.616;2023-03-01T09:31:36;32.28;;;13.18;;
7545;SDS011;3814;51.454;12.616;2023-03-01T09:34:01;30.55;;;13.30;;
7545;SDS011;3814;51.454;12.616;2023-03-01T09:36:27;29.23;;;13.02;;
7545;SDS011;3814;51.454;12.616;2023-03-01T09:38:52;31.50;;;13.18;;
7545;SDS011;3814;51.454;12.616;2023-03-01T09:41:38;31.30;;;13.95;;
7545;SDS011;3814;51.454;12.616;2023-03-01T09:47:02;31.00;;;13.07;;
7545;SDS011;3814;51.454;12.616;2023-03-01T09:49:32;34.55;;;13.15;;
7545;SDS011;3814;51.454;12.616;2023-03-01T09:52:00;34.75;;;12.73;;
7545;SDS011;3814;51.454;12.616;2023-03-01T09:54:29;31.70;;;12.82;;
7545;SDS011;3814;51.454;12.616;2023-03-01T09:57:05;29.73;;;12.68;;
7545;SDS011;3814;51.454;12.616;2023-03-01T09:59:47;27.35;;;11.30;;
7545;SDS011;3814;51.454;12.616;2023-03-01T10:02:39;28.00;;;11.95;;
7545;SDS011;3814;51.454;12.616;2023-03-01T10:05:21;27.67;;;12.32;;
7545;SDS011;3814;51.454;12.616;2023-03-01T10:08:00;28.65;;;12.07;;
7545;SDS011;3814;51.454;12.616;2023-03-01T10:10:28;29.60;;;12.50;;
7545;SDS011;3814;51.454;12.616;2023-03-01T10:12:58;27.77;;;11.82;;
7545;SDS011;3814;51.454;12.616;2023-03-01T10:15:31;28.35;;;12.48;;
7545;SDS011;3814;51.454;12.616;2023-03-01T10:18:04;33.40;;;13.07;;
7545;SDS011;3814;51.454;12.616;2023-03-01T10:20:53;28.67;;;12.27;;
7545;SDS011;3814;51.454;12.616;2023-03-01T10:23:22;27.45;;;11.55;;
7545;SDS011;3814;51.454;12.616;2023-03-01T10:29:00;25.85;;;10.77;;
7545;SDS011;3814;51.454;12.616;2023-03-01T10:31:32;28.65;;;11.07;;
7545;SDS011;3814;51.454;12.616;2023-03-01T10:34:11;29.45;;;11.18;;
7545;SDS011;3814;51.454;12.616;2023-03-01T10:36:41;29.13;;;11.70;;
7545;SDS011;3814;51.454;12.616;2023-03-01T10:39:14;28.83;;;10.65;;
7545;SDS011;3814;51.454;12.616;2023-03-01T10:41:55;25.98;;;10.63;;
7545;SDS011;3814;51.454;12.616;2023-03-01T10:44:41;24.95;;;9.82;;
7545;SDS011;3814;51.454;12.616;2023-03-01T10:47:21;27.55;;;9.93;;
7545;SDS011;3814;51.454;12.616;2023-03-01T10:49:53;27.85;;;10.48;;
7545;SDS011;3814;51.454;12.616;2023-03-01T10:52:21;24.80;;;10.57;;
7545;SDS011;3814;51.454;12.616;2023-03-01T10:54:54;25.88;;;10.60;;
7545;SDS011;3814;51.454;12.616;2023-03-01T10:57:31;26.58;;;10.85;;
7545;SDS011;3814;51.454;12.616;2023-03-01T11:00:13;25.02;;;9.75;;
7545;SDS011;3814;51.454;12.616;2023-03-01T11:02:41;25.42;;;10.55;;
7545;SDS011;3814;51.454;12.616;2023-03-01T11:10:17;27.35;;;10.82;;
7545;SDS011;3814;51.454;12.616;2023-03-01T11:12:43;29.25;;;11.07;;
7545;SDS011;3814;51.454;12.616;2023-03-01T11:15:15;24.98;;;9.95;;
7545;SDS011;3814;51.454;12.616;2023-03-01T11:17:45;27.70;;;10.05;;
7545;SDS011;3814;51.454;12.616;2023-03-01T11:25:11;19.85;;;8.20;;
7545;SDS011;3814;51.454;12.616;2023-03-01T11:27:40;24.15;;;9.13;;
7545;SDS011;3814;51.454;12.616;2023-03-01T11:30:16;26.20;;;10.02;;
7545;SDS011;3814;51.454;12.616;2023-03-01T11:32:47;24.08;;;10.13;;
7545;SDS011;3814;51.454;12.616;2023-03-01T11:35:18;25.63;;;10.40;;
7545;SDS011;3814;51.454;12.616;2023-03-01T11:43:26;24.02;;;10.57;;
7545;SDS011;3814;51.454;12.616;2023-03-01T11:46:02;25.08;;;10.25;;
7545;SDS011;3814;51.454;12.616;2023-03-01T11:49:03;23.52;;;9.77;;
7545;SDS011;3814;51.454;12.616;2023-03-01T11:54:48;26.40;;;10.25;;
7545;SDS011;3814;51.454;12.616;2023-03-01T11:59:57;24.53;;;10.27;;
7545;SDS011;3814;51.454;12.616;2023-03-01T12:02:48;25.20;;;10.43;;
7545;SDS011;3814;51.454;12.616;2023-03-01T12:08:21;25.83;;;10.20;;
7545;SDS011;3814;51.454;12.616;2023-03-01T12:10:56;21.42;;;8.90;;
7545;SDS011;3814;51.454;12.616;2023-03-01T12:13:47;26.65;;;10.07;;
7545;SDS011;3814;51.454;12.616;2023-03-01T12:19:28;21.77;;;9.50;;
7545;SDS011;3814;51.454;12.616;2023-03-01T12:27:50;21.80;;;8.10;;
7545;SDS011;3814;51.454;12.616;2023-03-01T12:38:50;25.48;;;9.50;;
7545;SDS011;3814;51.454;12.616;2023-03-01T12:41:40;23.58;;;9.13;;
7545;SDS011;3814;51.454;12.616;2023-03-01T12:44:11;20.88;;;7.65;;
7545;SDS011;3814;51.454;12.616;2023-03-01T12:46:50;19.95;;;7.80;;
7545;SDS011;3814;51.454;12.616;2023-03-01T12:49:22;18.80;;;7.88;;
7545;SDS011;3814;51.454;12.616;2023-03-01T12:51:53;19.98;;;7.95;;
7545;SDS011;3814;51.454;12.616;2023-03-01T12:54:31;18.80;;;7.80;;
7545;SDS011;3814;51.454;12.616;2023-03-01T12:57:00;19.83;;;8.00;;
7545;SDS011;3814;51.454;12.616;2023-03-01T12:59:38;18.35;;;7.75;;
7545;SDS011;3814;51.454;12.616;2023-03-01T13:02:45;18.65;;;7.20;;
7545;SDS011;3814;51.454;12.616;2023-03-01T13:05:07;14.65;;;6.32;;
7545;SDS011;3814;51.454;12.616;2023-03-01T13:07:58;17.27;;;7.25;;
7545;SDS011;3814;51.454;12.616;2023-03-01T13:10:41;16.17;;;6.47;;
7545;SDS011;3814;51.454;12.616;2023-03-01T13:13:22;15.77;;;6.50;;
7545;SDS011;3814;51.454;12.616;2023-03-01T13:15:48;12.73;;;5.68;;
7545;SDS011;3814;51.454;12.616;2023-03-01T13:23:28;15.20;;;6.87;;
7545;SDS011;3814;51.454;12.616;2023-03-01T13:26:10;15.60;;;6.03;;
7545;SDS011;3814;51.454;12.616;2023-03-01T13:28:38;15.65;;;6.03;;
7545;SDS011;3814;51.454;12.616;2023-03-01T13:33:50;15.05;;;5.90;;
7545;SDS011;3814;51.454;12.616;2023-03-01T13:44:17;12.55;;;5.28;;
7545;SDS011;3814;51.454;12.616;2023-03-01T13:46:59;14.77;;;6.00;;
7545;SDS011;3814;51.454;12.616;2023-03-01T13:49:31;12.80;;;5.75;;
7545;SDS011;3814;51.454;12.616;2023-03-01T13:55:51;14.05;;;5.90;;
7545;SDS011;3814;51.454;12.616;2023-03-01T13:58:01;11.15;;;4.95;;
7545;SDS011;3814;51.454;12.616;2023-03-01T14:03:12;13.70;;;5.57;;
7545;SDS011;3814;51.454;12.616;2023-03-01T14:05:40;15.00;;;5.78;;
7545;SDS011;3814;51.454;12.616;2023-03-01T14:08:24;14.68;;;5.75;;
7545;SDS011;3814;51.454;12.616;2023-03-01T14:10:58;12.20;;;5.50;;
7545;SDS011;3814;51.454;12.616;2023-03-01T14:13:47;14.40;;;5.18;;
7545;SDS011;3814;51.454;12.616;2023-03-01T14:19:14;15.27;;;5.85;;
7545;SDS011;3814;51.454;12.616;2023-03-01T14:22:02;14.30;;;6.10;;
7545;SDS011;3814;51.454;12.616;2023-03-01T14:24:37;14.07;;;5.28;;
7545;SDS011;3814;51.454;12.616;2023-03-01T14:27:08;16.23;;;6.00;;
7545;SDS011;3814;51.454;12.616;2023-03-01T14:29:37;14.85;;;5.90;;
7545;SDS011;3814;51.454;12.616;2023-03-01T14:32:16;13.65;;;5.45;;
7545;SDS011;3814;51.454;12.616;2023-03-01T14:34:44;13.27;;;5.68;;
7545;SDS011;3814;51.454;12.616;2023-03-01T14:37:19;14.07;;;4.90;;
7545;SDS011;3814;51.454;12.616;2023-03-01T14:39:51;12.45;;;5.28;;
7545;SDS011;3814;51.454;12.616;2023-03-01T14:42:17;11.50;;;4.78;;
7545;SDS011;3814;51.454;12.616;2023-03-01T14:44:43;14.23;;;5.80;;
7545;SDS011;3814;51.454;12.616;2023-03-01T14:47:12;12.50;;;5.35;;
7545;SDS011;3814;51.454;12.616;2023-03-01T14:49:40;12.57;;;4.60;;
7545;SDS011;3814;51.454;12.616;2023-03-01T14:52:07;11.43;;;5.40;;
7545;SDS011;3814;51.454;12.616;2023-03-01T14:54:49;11.48;;;4.35;;
7545;SDS011;3814;51.454;12.616;2023-03-01T14:57:16;12.93;;;4.50;;
7545;SDS011;3814;51.454;12.616;2023-03-01T14:59:43;10.57;;;4.55;;
7545;SDS011;3814;51.454;12.616;2023-03-01T15:02:13;12.80;;;4.97;;
7545;SDS011;3814;51.454;12.616;2023-03-01T15:04:48;12.88;;;5.22;;
7545;SDS011;3814;51.454;12.616;2023-03-01T15:07:16;11.40;;;5.32;;
7545;SDS011;3814;51.454;12.616;2023-03-01T15:09:42;10.70;;;5.10;;
7545;SDS011;3814;51.454;12.616;2023-03-01T15:14:52;14.43;;;5.47;;
7545;SDS011;3814;51.454;12.616;2023-03-01T15:17:20;14.10;;;5.25;;
7545;SDS011;3814;51.454;12.616;2023-03-01T15:19:59;11.93;;;5.18;;
7545;SDS011;3814;51.454;12.616;2023-03-01T15:22:25;9.98;;;4.78;;
7545;SDS011;3814;51.454;12.616;2023-03-01T15:24:51;12.20;;;4.75;;
7545;SDS011;3814;51.454;12.616;2023-03-01T15:27:18;11.90;;;5.50;;
7545;SDS011;3814;51.454;12.616;2023-03-01T15:29:50;11.10;;;5.05;;
7545;SDS011;3814;51.454;12.616;2023-03-01T15:32:33;10.23;;;4.90;;
7545;SDS011;3814;51.454;12.616;2023-03-01T15:35:31;13.60;;;5.28;;
7545;SDS011;3814;51.454;12.616;2023-03-01T15:38:24;10.60;;;4.63;;
7545;SDS011;3814;51.454;12.616;2023-03-01T15:41:25;11.98;;;5.00;;
7545;SDS011;3814;51.454;12.616;2023-03-01T15:44:14;11.32;;;5.20;;
7545;SDS011;3814;51.454;12.616;2023-03-01T15:46:44;9.60;;;3.63;;
7545;SDS011;3814;51.454;12.616;2023-03-01T15:52:05;11.63;;;4.70;;
7545;SDS011;3814;51.454;12.616;2023-03-01T15:54:34;15.55;;;4.97;;
7545;SDS011;3814;51.454;12.616;2023-03-01T15:57:00;14.63;;;5.28;;
7545;SDS011;3814;51.454;12.616;2023-03-01T15:59:25;11.43;;;4.93;;
7545;SDS011;3814;51.454;12.616;2023-03-01T16:01:50;12.15;;;5.63;;
7545;SDS011;3814;51.454;12.616;2023-03-01T16:04:17;13.70;;;5.70;;
7545;SDS011;3814;51.454;12.616;2023-03-01T16:06:47;13.13;;;5.25;;
7545;SDS011;3814;51.454;12.616;2023-03-01T16:09:18;13.45;;;5.57;;
7545;SDS011;3814;51.454;12.616;2023-03-01T16:11:44;14.73;;;5.78;;
7545;SDS011;3814;51.454;12.616;2023-03-01T16:14:09;15.40;;;6.32;;
7545;SDS011;3814;51.454;12.616;2023-03-01T16:16:34;15.25;;;5.70;;
7545;SDS011;3814;51.454;12.616;2023-03-01T16:19:00;11.65;;;5.50;;
7545;SDS011;3814;51.454;12.616;2023-03-01T16:21:25;13.70;;;5.53;;